Time,TemperatureF,DewpointF,PressureIn,WindDirection,WindDirectionDegrees,WindSpeedMPH,WindSpeedGustMPH,Humidity,HourlyPrecipIn,Conditions,Clouds,dailyrainin,SoftwareType,DateUTC
2013-03-06 00:11:00,41.0,38.0,30.02,North,0,6.0,-999.0,89,-99.99,,,-99.99,,2013-03-06 05:11:00,
2013-03-06 00:22:00,41.0,38.0,30.02,North,0,6.0,-999.0,89,-99.99,,,-99.99,,2013-03-06 05:22:00,
2013-03-06 00:32:00,41.0,38.0,30.02,North,0,6.0,-999.0,89,-99.99,,,-99.99,,2013-03-06 05:32:00,
2013-03-06 01:11:00,41.0,38.0,30.02,NNE,20,3.0,-999.0,89,-99.99,,,-99.99,,2013-03-06 06:11:00,
2013-03-06 01:21:00,41.0,38.0,30.02,NNE,20,3.0,-999.0,89,-99.99,,,-99.99,,2013-03-06 06:21:00,
2013-03-06 01:31:00,41.0,38.0,30.02,NNE,20,3.0,-999.0,89,-99.99,,,-99.99,,2013-03-06 06:31:00,
2013-03-06 02:11:00,41.0,38.0,30.02,North,10,5.0,-999.0,90,-99.99,,,-99.99,,2013-03-06 07:11:00,
2013-03-06 02:21:00,41.0,38.0,30.02,North,10,5.0,-999.0,90,-99.99,,,-99.99,,2013-03-06 07:21:00,
2013-03-06 03:11:00,42.0,40.0,30.01,NE,40,10.0,-999.0,91,-99.99,,,-99.99,,2013-03-06 08:11:00,
2013-03-06 03:21:00,42.0,40.0,30.01,NE,40,10.0,-999.0,91,-99.99,,,-99.99,,2013-03-06 08:21:00,
2013-03-06 03:31:00,42.0,40.0,30.01,NE,40,10.0,-999.0,91,-99.99,,,-99.99,,2013-03-06 08:31:00,
2013-03-06 04:12:00,42.0,40.0,30.01,NE,50,9.0,-999.0,94,-99.99,,,-99.99,,2013-03-06 09:12:00,
2013-03-06 04:21:00,42.0,40.0,30.01,NE,50,9.0,-999.0,94,-99.99,,,-99.99,,2013-03-06 09:21:00,
2013-03-06 05:11:00,42.0,40.0,30.00,NE,50,10.0,-999.0,95,-99.99,,,-99.99,,2013-03-06 10:11:00,
2013-03-06 05:21:00,42.0,40.0,30.00,NE,50,10.0,-999.0,95,-99.99,,,-99.99,,2013-03-06 10:21:00,
2013-03-06 05:31:00,42.0,40.0,30.00,NE,50,10.0,-999.0,95,-99.99,,,-99.99,,2013-03-06 10:31:00,
2013-03-06 06:11:00,42.0,41.0,30.00,NE,50,9.0,-999.0,95,-99.99,,,-99.99,,2013-03-06 11:11:00,
2013-03-06 06:22:00,42.0,41.0,30.00,NE,50,9.0,-999.0,95,-99.99,,,-99.99,,2013-03-06 11:22:00,
2013-03-06 07:00:00,43.0,42.0,30.01,ENE,70,14.0,-999.0,93,-99.99,,,-99.99,,2013-03-06 12:00:00,
2013-03-06 07:11:00,43.0,42.0,30.01,ENE,70,14.0,-999.0,93,-99.99,,,-99.99,,2013-03-06 12:11:00,
2013-03-06 07:21:00,43.0,42.0,30.01,ENE,70,14.0,-999.0,93,-99.99,,,-99.99,,2013-03-06 12:21:00,
2013-03-06 07:42:00,43.0,42.0,30.01,ENE,70,14.0,-999.0,93,-99.99,,,-99.99,,2013-03-06 12:42:00,
2013-03-06 07:52:00,43.0,42.0,30.01,ENE,70,14.0,-999.0,93,-99.99,,,-99.99,,2013-03-06 12:52:00,
2013-03-06 08:00:00,44.0,41.0,30.00,ENE,70,21.0,-999.0,88,-99.99,,,-99.99,,2013-03-06 13:00:00,
2013-03-06 08:11:00,44.0,41.0,30.00,ENE,70,21.0,-999.0,88,-99.99,,,-99.99,,2013-03-06 13:11:00,
2013-03-06 08:21:00,44.0,41.0,30.00,ENE,70,21.0,-999.0,88,-99.99,,,-99.99,,2013-03-06 13:21:00,
2013-03-06 08:31:00,44.0,41.0,30.00,ENE,70,21.0,-999.0,88,-99.99,,,-99.99,,2013-03-06 13:31:00,
2013-03-06 08:41:00,44.0,41.0,30.00,ENE,70,21.0,-999.0,88,-99.99,,,-99.99,,2013-03-06 13:41:00,
2013-03-06 08:51:00,44.0,41.0,30.00,ENE,70,21.0,-999.0,88,-99.99,,,-99.99,,2013-03-06 13:51:00,
2013-03-06 09:00:00,45.0,41.0,30.03,East,80,22.0,-999.0,86,-99.99,,,-99.99,,2013-03-06 14:00:00,
2013-03-06 09:11:00,45.0,41.0,30.03,East,80,22.0,-999.0,86,-99.99,,,-99.99,,2013-03-06 14:11:00,
2013-03-06 09:21:00,45.0,41.0,30.03,East,80,22.0,-999.0,86,-99.99,,,-99.99,,2013-03-06 14:21:00,
2013-03-06 09:31:00,45.0,41.0,30.03,East,80,22.0,-999.0,86,-99.99,,,-99.99,,2013-03-06 14:31:00,
2013-03-06 09:41:00,45.0,41.0,30.03,East,80,22.0,-999.0,86,-99.99,,,-99.99,,2013-03-06 14:41:00,
2013-03-06 09:52:00,45.0,41.0,30.03,East,80,22.0,-999.0,86,-99.99,,,-99.99,,2013-03-06 14:52:00,
2013-03-06 10:00:00,45.0,39.0,30.01,ENE,70,24.0,-999.0,80,-99.99,,,-99.99,,2013-03-06 15:00:00,
2013-03-06 10:11:00,45.0,39.0,30.01,ENE,70,24.0,-999.0,80,-99.99,,,-99.99,,2013-03-06 15:11:00,
2013-03-06 10:21:00,45.0,39.0,30.01,ENE,70,24.0,-999.0,80,-99.99,,,-99.99,,2013-03-06 15:21:00,
2013-03-06 10:32:00,45.0,39.0,30.01,ENE,70,24.0,-999.0,80,-99.99,,,-99.99,,2013-03-06 15:32:00,
2013-03-06 10:41:00,45.0,39.0,30.01,ENE,70,24.0,-999.0,80,-99.99,,,-99.99,,2013-03-06 15:41:00,
2013-03-06 10:51:00,45.0,39.0,30.01,ENE,70,24.0,-999.0,80,-99.99,,,-99.99,,2013-03-06 15:51:00,
2013-03-06 11:00:00,45.0,38.0,30.01,East,80,25.0,-999.0,75,-99.99,,,-99.99,,2013-03-06 16:00:00,
2013-03-06 11:11:00,45.0,38.0,30.01,East,80,25.0,-999.0,75,-99.99,,,-99.99,,2013-03-06 16:11:00,
2013-03-06 11:21:00,45.0,38.0,30.01,East,80,25.0,-999.0,75,-99.99,,,-99.99,,2013-03-06 16:21:00,
2013-03-06 11:32:00,45.0,38.0,30.01,East,80,25.0,-999.0,75,-99.99,,,-99.99,,2013-03-06 16:32:00,
2013-03-06 11:41:00,45.0,38.0,30.01,East,80,25.0,-999.0,75,-99.99,,,-99.99,,2013-03-06 16:41:00,
2013-03-06 11:51:00,45.0,38.0,30.01,East,80,25.0,-999.0,75,-99.99,,,-99.99,,2013-03-06 16:51:00,
2013-03-06 12:11:00,45.0,39.0,30.01,East,80,17.0,-999.0,78,-99.99,,,-99.99,,2013-03-06 17:11:00,
2013-03-06 12:21:00,45.0,39.0,30.01,East,80,17.0,-999.0,78,-99.99,,,-99.99,,2013-03-06 17:21:00,
2013-03-06 13:28:00,45.0,40.0,29.98,ENE,60,18.0,-999.0,83,-99.99,,,-99.99,,2013-03-06 18:28:00,
2013-03-06 14:11:00,45.0,42.0,29.96,ENE,70,18.0,-999.0,86,-99.99,,,-99.99,,2013-03-06 19:11:00,
2013-03-06 14:21:00,45.0,42.0,29.96,ENE,70,18.0,-999.0,86,-99.99,,,-99.99,,2013-03-06 19:21:00,
2013-03-06 14:31:00,45.0,42.0,29.96,ENE,70,18.0,-999.0,86,-99.99,,,-99.99,,2013-03-06 19:31:00,
2013-03-06 15:11:00,45.0,40.0,29.97,ENE,70,20.0,-999.0,82,-99.99,,,-99.99,,2013-03-06 20:11:00,
2013-03-06 15:21:00,45.0,40.0,29.97,ENE,70,20.0,-999.0,82,-99.99,,,-99.99,,2013-03-06 20:21:00,
2013-03-06 16:11:00,44.0,40.0,29.96,ENE,70,25.0,-999.0,82,-99.99,,,-99.99,,2013-03-06 21:11:00,
2013-03-06 16:21:00,44.0,40.0,29.96,ENE,70,25.0,-999.0,82,-99.99,,,-99.99,,2013-03-06 21:21:00,
2013-03-06 17:11:00,43.0,41.0,29.95,ENE,60,24.0,-999.0,91,-99.99,,,-99.99,,2013-03-06 22:11:00,
2013-03-06 17:21:00,43.0,41.0,29.95,ENE,60,24.0,-999.0,91,-99.99,,,-99.99,,2013-03-06 22:21:00,
2013-03-06 17:31:00,43.0,41.0,29.95,ENE,60,24.0,-999.0,91,-99.99,,,-99.99,,2013-03-06 22:31:00,
2013-03-06 18:00:00,40.0,38.0,29.97,NE,50,22.0,-999.0,91,-99.99,,,-99.99,,2013-03-06 23:00:00,
2013-03-06 18:11:00,40.0,38.0,29.97,NE,50,22.0,-999.0,91,-99.99,,,-99.99,,2013-03-06 23:11:00,
2013-03-06 18:21:00,40.0,38.0,29.97,NE,50,22.0,-999.0,91,-99.99,,,-99.99,,2013-03-06 23:21:00,
2013-03-06 18:31:00,40.0,38.0,29.97,NE,50,22.0,-999.0,91,-99.99,,,-99.99,,2013-03-06 23:31:00,
2013-03-06 18:41:00,40.0,38.0,29.97,NE,50,22.0,-999.0,91,-99.99,,,-99.99,,2013-03-06 23:41:00,
2013-03-06 18:52:00,40.0,38.0,29.97,NE,50,22.0,-999.0,91,-99.99,,,-99.99,,2013-03-06 23:52:00,
2013-03-06 19:00:00,40.0,38.0,29.96,NE,50,24.0,-999.0,91,-99.99,,,-99.99,,2013-03-07 00:00:00,
2013-03-06 19:11:00,40.0,38.0,29.96,NE,50,24.0,-999.0,91,-99.99,,,-99.99,,2013-03-07 00:11:00,
2013-03-06 19:21:00,40.0,38.0,29.96,NE,50,24.0,-999.0,91,-99.99,,,-99.99,,2013-03-07 00:21:00,
2013-03-06 19:31:00,40.0,38.0,29.96,NE,50,24.0,-999.0,91,-99.99,,,-99.99,,2013-03-07 00:31:00,
2013-03-06 19:41:00,40.0,38.0,29.96,NE,50,24.0,-999.0,91,-99.99,,,-99.99,,2013-03-07 00:41:00,
2013-03-06 19:51:00,40.0,38.0,29.96,NE,50,24.0,-999.0,91,-99.99,,,-99.99,,2013-03-07 00:51:00,
2013-03-06 20:00:00,40.0,38.0,29.95,NE,40,28.0,-999.0,91,-99.99,,,-99.99,,2013-03-07 01:00:00,
2013-03-06 20:11:00,40.0,38.0,29.95,NE,40,28.0,-999.0,91,-99.99,,,-99.99,,2013-03-07 01:11:00,
2013-03-06 20:21:00,40.0,38.0,29.95,NE,40,28.0,-999.0,91,-99.99,,,-99.99,,2013-03-07 01:21:00,
2013-03-06 20:31:00,40.0,38.0,29.95,NE,40,28.0,-999.0,91,-99.99,,,-99.99,,2013-03-07 01:31:00,
2013-03-06 20:41:00,40.0,38.0,29.95,NE,40,28.0,-999.0,91,-99.99,,,-99.99,,2013-03-07 01:41:00,
2013-03-06 20:51:00,40.0,38.0,29.95,NE,40,28.0,-999.0,91,-99.99,,,-99.99,,2013-03-07 01:51:00,
2013-03-06 21:00:00,40.0,38.0,29.94,NE,50,26.0,-999.0,91,-99.99,,,-99.99,,2013-03-07 02:00:00,
2013-03-06 21:11:00,40.0,38.0,29.94,NE,50,26.0,-999.0,91,-99.99,,,-99.99,,2013-03-07 02:11:00,
2013-03-06 21:21:00,40.0,38.0,29.94,NE,50,26.0,-999.0,91,-99.99,,,-99.99,,2013-03-07 02:21:00,
2013-03-06 21:31:00,40.0,38.0,29.94,NE,50,26.0,-999.0,91,-99.99,,,-99.99,,2013-03-07 02:31:00,
2013-03-06 21:41:00,40.0,38.0,29.94,NE,50,26.0,-999.0,91,-99.99,,,-99.99,,2013-03-07 02:41:00,
2013-03-06 21:51:00,40.0,38.0,29.94,NE,50,26.0,-999.0,91,-99.99,,,-99.99,,2013-03-07 02:51:00,
2013-03-06 22:00:00,40.0,37.0,29.93,NE,50,29.0,-999.0,88,-99.99,,,-99.99,,2013-03-07 03:00:00,
2013-03-06 22:11:00,40.0,37.0,29.93,NE,50,29.0,-999.0,88,-99.99,,,-99.99,,2013-03-07 03:11:00,
2013-03-06 22:21:00,40.0,37.0,29.93,NE,50,29.0,-999.0,88,-99.99,,,-99.99,,2013-03-07 03:21:00,
2013-03-06 22:31:00,40.0,37.0,29.93,NE,50,29.0,-999.0,88,-99.99,,,-99.99,,2013-03-07 03:31:00,
2013-03-06 22:41:00,40.0,37.0,29.93,NE,50,29.0,-999.0,88,-99.99,,,-99.99,,2013-03-07 03:41:00,
2013-03-06 22:51:00,40.0,37.0,29.93,NE,50,29.0,-999.0,88,-99.99,,,-99.99,,2013-03-07 03:51:00,